sensor_id;sensor_type;location;lat;lon;timestamp;P1;durP1;ratioP1;P2;durP2;ratioP2
54157;SDS011;40065;49.894;10.358;2023-02-28T00:01:23;7.65;;;3.90;;
54157;SDS011;40065;49.894;10.358;2023-02-28T00:06:25;6.18;;;3.78;;
54157;SDS011;40065;49.894;10.358;2023-02-28T00:11:27;6.63;;;4.22;;
54157;SDS011;40065;49.894;10.358;2023-02-28T00:16:29;6.70;;;3.83;;
54157;SDS011;40065;49.894;10.358;2023-02-28T00:21:31;7.88;;;4.10;;
54157;SDS011;40065;49.894;10.358;2023-02-28T00:26:33;7.93;;;4.50;;
54157;SDS011;40065;49.894;10.358;2023-02-28T00:31:35;10.02;;;4.32;;
54157;SDS011;40065;49.894;10.358;2023-02-28T00:36:37;7.05;;;4.15;;
54157;SDS011;40065;49.894;10.358;2023-02-28T00:41:40;6.40;;;4.03;;
54157;SDS011;40065;49.894;10.358;2023-02-28T00:46:41;7.43;;;4.00;;
54157;SDS011;40065;49.894;10.358;2023-02-28T00:51:43;7.00;;;4.00;;
54157;SDS011;40065;49.894;10.358;2023-02-28T00:56:45;7.25;;;4.30;;
54157;SDS011;40065;49.894;10.358;2023-02-28T01:01:47;6.72;;;3.95;;
54157;SDS011;40065;49.894;10.358;2023-02-28T01:06:49;7.78;;;3.80;;
54157;SDS011;40065;49.894;10.358;2023-02-28T01:11:50;7.53;;;4.00;;
54157;SDS011;40065;49.894;10.358;2023-02-28T01:16:52;6.50;;;3.47;;
54157;SDS011;40065;49.894;10.358;2023-02-28T01:21:54;5.95;;;3.72;;
54157;SDS011;40065;49.894;10.358;2023-02-28T01:26:56;6.50;;;3.70;;
54157;SDS011;40065;49.894;10.358;2023-02-28T01:31:58;7.75;;;4.32;;
54157;SDS011;40065;49.894;10.358;2023-02-28T01:37:00;7.22;;;3.42;;
54157;SDS011;40065;49.894;10.358;2023-02-28T01:42:03;7.20;;;3.75;;
54157;SDS011;40065;49.894;10.358;2023-02-28T01:47:10;7.68;;;3.80;;
54157;SDS011;40065;49.894;10.358;2023-02-28T01:52:12;7.15;;;3.60;;
54157;SDS011;40065;49.894;10.358;2023-02-28T01:57:21;6.75;;;3.85;;
54157;SDS011;40065;49.894;10.358;2023-02-28T02:02:27;6.90;;;3.95;;
54157;SDS011;40065;49.894;10.358;2023-02-28T02:07:32;5.95;;;3.35;;
54157;SDS011;40065;49.894;10.358;2023-02-28T02:12:45;7.32;;;4.07;;
54157;SDS011;40065;49.894;10.358;2023-02-28T02:18:13;6.78;;;3.70;;
54157;SDS011;40065;49.894;10.358;2023-02-28T02:40:04;6.53;;;3.67;;
54157;SDS011;40065;49.894;10.358;2023-02-28T02:45:14;7.68;;;4.30;;
54157;SDS011;40065;49.894;10.358;2023-02-28T02:50:54;7.28;;;4.35;;
54157;SDS011;40065;49.894;10.358;2023-02-28T02:55:58;6.35;;;3.90;;
54157;SDS011;40065;49.894;10.358;2023-02-28T03:01:03;6.82;;;3.80;;
54157;SDS011;40065;49.894;10.358;2023-02-28T03:06:06;6.65;;;3.75;;
54157;SDS011;40065;49.894;10.358;2023-02-28T03:11:12;6.03;;;3.42;;
54157;SDS011;40065;49.894;10.358;2023-02-28T03:32:28;7.07;;;3.53;;
54157;SDS011;40065;49.894;10.358;2023-02-28T03:37:37;6.50;;;3.53;;
54157;SDS011;40065;49.894;10.358;2023-02-28T03:42:43;6.47;;;3.75;;
54157;SDS011;40065;49.894;10.358;2023-02-28T03:53:01;6.30;;;3.95;;
54157;SDS011;40065;49.894;10.358;2023-02-28T03:58:11;5.20;;;3.42;;
54157;SDS011;40065;49.894;10.358;2023-02-28T04:03:26;6.43;;;3.88;;
54157;SDS011;40065;49.894;10.358;2023-02-28T04:08:28;7.97;;;4.55;;
54157;SDS011;40065;49.894;10.358;2023-02-28T04:13:30;10.32;;;4.30;;
54157;SDS011;40065;49.894;10.358;2023-02-28T04:18:31;9.88;;;4.30;;
54157;SDS011;40065;49.894;10.358;2023-02-28T04:23:33;8.18;;;4.35;;
54157;SDS011;40065;49.894;10.358;2023-02-28T04:28:36;8.27;;;4.60;;
54157;SDS011;40065;49.894;10.358;2023-02-28T04:33:38;8.35;;;4.45;;
54157;SDS011;40065;49.894;10.358;2023-02-28T04:38:40;7.20;;;4.03;;
54157;SDS011;40065;49.894;10.358;2023-02-28T04:43:42;7.93;;;4.63;;
54157;SDS011;40065;49.894;10.358;2023-02-28T04:48:44;19.77;;;10.82;;
54157;SDS011;40065;49.894;10.358;2023-02-28T04:53:46;19.15;;;7.88;;
54157;SDS011;40065;49.894;10.358;2023-02-28T04:58:48;8.95;;;4.55;;
54157;SDS011;40065;49.894;10.358;2023-02-28T05:03:52;7.67;;;4.57;;
54157;SDS011;40065;49.894;10.358;2023-02-28T05:08:56;9.05;;;4.40;;
54157;SDS011;40065;49.894;10.358;2023-02-28T05:13:58;9.25;;;4.90;;
54157;SDS011;40065;49.894;10.358;2023-02-28T05:19:00;7.63;;;4.15;;
54157;SDS011;40065;49.894;10.358;2023-02-28T05:24:03;10.20;;;5.07;;
54157;SDS011;40065;49.894;10.358;2023-02-28T05:29:13;11.38;;;6.55;;
54157;SDS011;40065;49.894;10.358;2023-02-28T05:34:15;10.02;;;5.00;;
54157;SDS011;40065;49.894;10.358;2023-02-28T05:39:17;8.15;;;4.28;;
54157;SDS011;40065;49.894;10.358;2023-02-28T05:44:19;6.57;;;3.75;;
54157;SDS011;40065;49.894;10.358;2023-02-28T05:49:21;6.78;;;4.03;;
54157;SDS011;40065;49.894;10.358;2023-02-28T05:54:23;8.90;;;4.20;;
54157;SDS011;40065;49.894;10.358;2023-02-28T05:59:25;8.98;;;4.13;;
54157;SDS011;40065;49.894;10.358;2023-02-28T06:04:27;8.45;;;4.03;;
54157;SDS011;40065;49.894;10.358;2023-02-28T06:09:35;9.13;;;4.60;;
54157;SDS011;40065;49.894;10.358;2023-02-28T06:14:37;8.70;;;4.50;;
54157;SDS011;40065;49.894;10.358;2023-02-28T06:19:39;9.27;;;4.90;;
54157;SDS011;40065;49.894;10.358;2023-02-28T06:24:42;10.07;;;4.70;;
54157;SDS011;40065;49.894;10.358;2023-02-28T06:29:44;8.18;;;4.90;;
54157;SDS011;40065;49.894;10.358;2023-02-28T06:34:46;10.23;;;4.93;;
54157;SDS011;40065;49.894;10.358;2023-02-28T06:39:47;8.80;;;4.80;;
54157;SDS011;40065;49.894;10.358;2023-02-28T06:44:49;7.95;;;4.35;;
54157;SDS011;40065;49.894;10.358;2023-02-28T06:49:52;8.15;;;4.53;;
54157;SDS011;40065;49.894;10.358;2023-02-28T06:54:53;8.13;;;4.50;;
54157;SDS011;40065;49.894;10.358;2023-02-28T07:00:02;6.93;;;4.53;;
54157;SDS011;40065;49.894;10.358;2023-02-28T07:05:08;8.52;;;5.22;;
54157;SDS011;40065;49.894;10.358;2023-02-28T07:10:11;8.27;;;4.10;;
54157;SDS011;40065;49.894;10.358;2023-02-28T07:15:14;7.82;;;4.45;;
54157;SDS011;40065;49.894;10.358;2023-02-28T07:20:16;7.55;;;4.40;;
54157;SDS011;40065;49.894;10.358;2023-02-28T07:25:18;8.48;;;4.60;;
54157;SDS011;40065;49.894;10.358;2023-02-28T07:30:20;7.68;;;4.63;;
54157;SDS011;40065;49.894;10.358;2023-02-28T07:35:22;9.02;;;4.25;;
54157;SDS011;40065;49.894;10.358;2023-02-28T07:40:25;8.77;;;4.60;;
54157;SDS011;40065;49.894;10.358;2023-02-28T07:45:27;7.45;;;4.07;;
54157;SDS011;40065;49.894;10.358;2023-02-28T07:50:30;7.10;;;4.82;;
54157;SDS011;40065;49.894;10.358;2023-02-28T07:55:32;10.23;;;5.28;;
54157;SDS011;40065;49.894;10.358;2023-02-28T08:00:34;8.88;;;4.18;;
54157;SDS011;40065;49.894;10.358;2023-02-28T08:05:38;7.20;;;4.65;;
54157;SDS011;40065;49.894;10.358;2023-02-28T08:10:41;7.95;;;4.90;;
54157;SDS011;40065;49.894;10.358;2023-02-28T08:15:43;7.57;;;4.85;;
54157;SDS011;40065;49.894;10.358;2023-02-28T08:20:46;10.55;;;5.35;;
54157;SDS011;40065;49.894;10.358;2023-02-28T08:25:54;7.75;;;4.55;;
54157;SDS011;40065;49.894;10.358;2023-02-28T08:30:57;8.25;;;5.53;;
54157;SDS011;40065;49.894;10.358;2023-02-28T08:35:59;9.52;;;5.57;;
54157;SDS011;40065;49.894;10.358;2023-02-28T08:41:02;8.65;;;5.30;;
54157;SDS011;40065;49.894;10.358;2023-02-28T08:46:10;8.48;;;5.72;;
54157;SDS011;40065;49.894;10.358;2023-02-28T08:51:15;9.00;;;4.80;;
54157;SDS011;40065;49.894;10.358;2023-02-28T08:56:20;8.13;;;4.22;;
54157;SDS011;40065;49.894;10.358;2023-02-28T09:01:23;7.13;;;4.32;;
54157;SDS011;40065;49.894;10.358;2023-02-28T09:06:30;7.15;;;4.50;;
54157;SDS011;40065;49.894;10.358;2023-02-28T09:11:34;6.80;;;4.13;;
54157;SDS011;40065;49.894;10.358;2023-02-28T09:16:37;6.72;;;4.80;;
54157;SDS011;40065;49.894;10.358;2023-02-28T09:21:39;6.95;;;4.32;;
54157;SDS011;40065;49.894;10.358;2023-02-28T09:26:41;7.47;;;4.45;;
54157;SDS011;40065;49.894;10.358;2023-02-28T09:31:56;7.78;;;4.72;;
54157;SDS011;40065;49.894;10.358;2023-02-28T09:37:01;8.27;;;5.50;;
54157;SDS011;40065;49.894;10.358;2023-02-28T09:42:04;13.40;;;5.03;;
54157;SDS011;40065;49.894;10.358;2023-02-28T09:52:30;7.63;;;5.00;;
54157;SDS011;40065;49.894;10.358;2023-02-28T09:57:39;11.02;;;5.00;;
54157;SDS011;40065;49.894;10.358;2023-02-28T10:02:48;7.00;;;4.95;;
54157;SDS011;40065;49.894;10.358;2023-02-28T10:08:13;8.45;;;5.47;;
54157;SDS011;40065;49.894;10.358;2023-02-28T10:18:41;10.27;;;5.60;;
54157;SDS011;40065;49.894;10.358;2023-02-28T10:23:48;14.02;;;6.75;;
54157;SDS011;40065;49.894;10.358;2023-02-28T10:28:51;10.88;;;5.43;;
54157;SDS011;40065;49.894;10.358;2023-02-28T10:33:54;7.95;;;5.07;;
54157;SDS011;40065;49.894;10.358;2023-02-28T10:38:56;11.45;;;5.85;;
54157;SDS011;40065;49.894;10.358;2023-02-28T10:54:30;9.13;;;6.13;;
54157;SDS011;40065;49.894;10.358;2023-02-28T10:59:36;9.35;;;5.53;;
54157;SDS011;40065;49.894;10.358;2023-02-28T11:04:38;11.70;;;5.53;;
54157;SDS011;40065;49.894;10.358;2023-02-28T11:09:41;9.85;;;5.70;;
54157;SDS011;40065;49.894;10.358;2023-02-28T11:14:47;9.57;;;5.30;;
54157;SDS011;40065;49.894;10.358;2023-02-28T11:19:56;9.52;;;5.43;;
54157;SDS011;40065;49.894;10.358;2023-02-28T11:25:09;8.68;;;5.13;;
54157;SDS011;40065;49.894;10.358;2023-02-28T11:30:23;8.90;;;5.18;;
54157;SDS011;40065;49.894;10.358;2023-02-28T11:35:34;9.88;;;5.45;;
54157;SDS011;40065;49.894;10.358;2023-02-28T11:40:43;8.93;;;5.15;;
54157;SDS011;40065;49.894;10.358;2023-02-28T11:51:10;9.13;;;5.30;;
54157;SDS011;40065;49.894;10.358;2023-02-28T11:56:44;8.13;;;5.15;;
54157;SDS011;40065;49.894;10.358;2023-02-28T12:01:58;7.70;;;4.90;;
54157;SDS011;40065;49.894;10.358;2023-02-28T12:07:25;7.95;;;5.40;;
54157;SDS011;40065;49.894;10.358;2023-02-28T12:29:05;11.73;;;6.20;;
54157;SDS011;40065;49.894;10.358;2023-02-28T12:34:26;9.32;;;5.78;;
54157;SDS011;40065;49.894;10.358;2023-02-28T12:39:34;10.27;;;6.05;;
54157;SDS011;40065;49.894;10.358;2023-02-28T12:44:52;12.52;;;6.90;;
54157;SDS011;40065;49.894;10.358;2023-02-28T12:49:59;11.10;;;7.25;;
54157;SDS011;40065;49.894;10.358;2023-02-28T12:55:10;12.27;;;6.45;;
54157;SDS011;40065;49.894;10.358;2023-02-28T13:00:19;9.38;;;6.47;;
54157;SDS011;40065;49.894;10.358;2023-02-28T13:06:10;10.77;;;6.63;;
54157;SDS011;40065;49.894;10.358;2023-02-28T13:11:06;10.90;;;5.85;;
54157;SDS011;40065;49.894;10.358;2023-02-28T13:16:21;10.45;;;5.47;;
54157;SDS011;40065;49.894;10.358;2023-02-28T13:21:24;11.85;;;7.07;;
54157;SDS011;40065;49.894;10.358;2023-02-28T13:47:36;10.02;;;5.65;;
54157;SDS011;40065;49.894;10.358;2023-02-28T13:52:49;10.32;;;6.25;;
54157;SDS011;40065;49.894;10.358;2023-02-28T14:15:23;11.80;;;6.10;;
54157;SDS011;40065;49.894;10.358;2023-02-28T14:41:14;11.75;;;6.03;;
54157;SDS011;40065;49.894;10.358;2023-02-28T14:46:35;11.10;;;5.97;;
54157;SDS011;40065;49.894;10.358;2023-02-28T14:51:39;10.43;;;6.22;;
54157;SDS011;40065;49.894;10.358;2023-02-28T14:56:41;9.23;;;5.40;;
54157;SDS011;40065;49.894;10.358;2023-02-28T15:01:43;8.50;;;5.20;;
54157;SDS011;40065;49.894;10.358;2023-02-28T15:06:45;9.30;;;4.97;;
54157;SDS011;40065;49.894;10.358;2023-02-28T15:11:48;9.70;;;5.88;;
54157;SDS011;40065;49.894;10.358;2023-02-28T15:16:52;10.00;;;5.75;;
54157;SDS011;40065;49.894;10.358;2023-02-28T15:22:04;7.72;;;4.63;;
54157;SDS011;40065;49.894;10.358;2023-02-28T15:27:14;12.02;;;5.88;;
54157;SDS011;40065;49.894;10.358;2023-02-28T15:32:27;9.35;;;5.40;;
54157;SDS011;40065;49.894;10.358;2023-02-28T15:37:44;10.18;;;6.45;;
54157;SDS011;40065;49.894;10.358;2023-02-28T15:43:05;9.82;;;5.63;;
54157;SDS011;40065;49.894;10.358;2023-02-28T15:48:25;12.95;;;6.00;;
54157;SDS011;40065;49.894;10.358;2023-02-28T15:53:33;8.85;;;5.78;;
54157;SDS011;40065;49.894;10.358;2023-02-28T15:58:39;10.95;;;5.45;;
54157;SDS011;40065;49.894;10.358;2023-02-28T16:03:44;13.38;;;6.35;;
54157;SDS011;40065;49.894;10.358;2023-02-28T16:08:50;11.05;;;6.22;;
54157;SDS011;40065;49.894;10.358;2023-02-28T16:13:54;9.32;;;5.55;;
54157;SDS011;40065;49.894;10.358;2023-02-28T16:18:56;8.40;;;5.43;;
54157;SDS011;40065;49.894;10.358;2023-02-28T16:23:58;12.20;;;6.30;;
54157;SDS011;40065;49.894;10.358;2023-02-28T16:29:03;27.00;;;11.88;;
54157;SDS011;40065;49.894;10.358;2023-02-28T16:34:05;10.68;;;6.00;;
54157;SDS011;40065;49.894;10.358;2023-02-28T16:39:07;11.25;;;6.53;;
54157;SDS011;40065;49.894;10.358;2023-02-28T16:44:11;10.23;;;6.18;;
54157;SDS011;40065;49.894;10.358;2023-02-28T16:49:18;15.27;;;8.55;;
54157;SDS011;40065;49.894;10.358;2023-02-28T16:54:21;9.82;;;5.30;;
54157;SDS011;40065;49.894;10.358;2023-02-28T16:59:23;11.30;;;6.20;;
54157;SDS011;40065;49.894;10.358;2023-02-28T17:04:27;17.42;;;9.93;;
54157;SDS011;40065;49.894;10.358;2023-02-28T17:09:29;10.60;;;5.15;;
54157;SDS011;40065;49.894;10.358;2023-02-28T17:14:43;9.70;;;5.68;;
54157;SDS011;40065;49.894;10.358;2023-02-28T17:19:45;12.88;;;6.47;;
54157;SDS011;40065;49.894;10.358;2023-02-28T17:24:47;10.15;;;5.38;;
54157;SDS011;40065;49.894;10.358;2023-02-28T17:29:48;9.30;;;5.03;;
54157;SDS011;40065;49.894;10.358;2023-02-28T17:34:50;18.17;;;9.90;;
54157;SDS011;40065;49.894;10.358;2023-02-28T17:39:52;13.57;;;7.38;;
54157;SDS011;40065;49.894;10.358;2023-02-28T17:44:54;11.82;;;7.57;;
54157;SDS011;40065;49.894;10.358;2023-02-28T17:49:56;9.98;;;5.95;;
54157;SDS011;40065;49.894;10.358;2023-02-28T17:54:57;9.43;;;5.25;;
54157;SDS011;40065;49.894;10.358;2023-02-28T17:59:59;10.60;;;6.20;;
54157;SDS011;40065;49.894;10.358;2023-02-28T18:05:11;16.92;;;8.57;;
54157;SDS011;40065;49.894;10.358;2023-02-28T18:10:15;9.82;;;5.13;;
54157;SDS011;40065;49.894;10.358;2023-02-28T18:15:21;10.02;;;5.35;;
54157;SDS011;40065;49.894;10.358;2023-02-28T18:20:26;19.80;;;9.30;;
54157;SDS011;40065;49.894;10.358;2023-02-28T18:25:29;12.50;;;6.18;;
54157;SDS011;40065;49.894;10.358;2023-02-28T18:30:31;11.23;;;6.82;;
54157;SDS011;40065;49.894;10.358;2023-02-28T18:35:35;12.82;;;6.65;;
54157;SDS011;40065;49.894;10.358;2023-02-28T18:40:39;13.52;;;6.90;;
54157;SDS011;40065;49.894;10.358;2023-02-28T18:45:42;12.90;;;7.80;;
54157;SDS011;40065;49.894;10.358;2023-02-28T18:50:45;14.70;;;7.75;;
54157;SDS011;40065;49.894;10.358;2023-02-28T18:55:47;16.45;;;9.40;;
54157;SDS011;40065;49.894;10.358;2023-02-28T19:00:48;15.38;;;8.30;;
54157;SDS011;40065;49.894;10.358;2023-02-28T19:05:57;15.43;;;8.13;;
54157;SDS011;40065;49.894;10.358;2023-02-28T19:11:05;17.73;;;8.95;;
54157;SDS011;40065;49.894;10.358;2023-02-28T19:16:11;29.60;;;12.90;;
54157;SDS011;40065;49.894;10.358;2023-02-28T19:21:15;21.77;;;9.77;;
54157;SDS011;40065;49.894;10.358;2023-02-28T19:31:24;14.05;;;7.75;;
54157;SDS011;40065;49.894;10.358;2023-02-28T19:36:26;11.25;;;7.10;;
54157;SDS011;40065;49.894;10.358;2023-02-28T19:41:28;13.77;;;8.85;;
54157;SDS011;40065;49.894;10.358;2023-02-28T19:46:30;12.52;;;7.05;;
54157;SDS011;40065;49.894;10.358;2023-02-28T19:51:32;14.52;;;8.25;;
54157;SDS011;40065;49.894;10.358;2023-02-28T19:56:34;16.30;;;8.85;;
54157;SDS011;40065;49.894;10.358;2023-02-28T20:01:36;16.10;;;8.77;;
54157;SDS011;40065;49.894;10.358;2023-02-28T20:06:38;17.55;;;9.05;;
54157;SDS011;40065;49.894;10.358;2023-02-28T20:11:40;14.10;;;8.38;;
54157;SDS011;40065;49.894;10.358;2023-02-28T20:16:43;15.85;;;8.88;;
54157;SDS011;40065;49.894;10.358;2023-02-28T20:21:45;15.43;;;8.07;;
54157;SDS011;40065;49.894;10.358;2023-02-28T20:26:47;16.52;;;8.73;;
54157;SDS011;40065;49.894;10.358;2023-02-28T20:31:49;14.05;;;8.32;;
54157;SDS011;40065;49.894;10.358;2023-02-28T20:36:51;20.55;;;9.40;;
54157;SDS011;40065;49.894;10.358;2023-02-28T20:41:53;16.25;;;9.02;;
54157;SDS011;40065;49.894;10.358;2023-02-28T20:46:55;17.00;;;9.55;;
54157;SDS011;40065;49.894;10.358;2023-02-28T20:51:57;16.90;;;9.15;;
54157;SDS011;40065;49.894;10.358;2023-02-28T20:56:58;21.75;;;9.55;;
54157;SDS011;40065;49.894;10.358;2023-02-28T21:02:00;17.70;;;9.80;;
54157;SDS011;40065;49.894;10.358;2023-02-28T21:07:02;23.65;;;11.68;;
54157;SDS011;40065;49.894;10.358;2023-02-28T21:12:05;17.23;;;9.05;;
54157;SDS011;40065;49.894;10.358;2023-02-28T21:17:07;17.05;;;9.90;;
54157;SDS011;40065;49.894;10.358;2023-02-28T21:22:10;18.17;;;9.77;;
54157;SDS011;40065;49.894;10.358;2023-02-28T21:27:14;20.67;;;10.38;;
54157;SDS011;40065;49.894;10.358;2023-02-28T21:32:16;20.67;;;11.70;;
54157;SDS011;40065;49.894;10.358;2023-02-28T21:37:18;20.67;;;10.50;;
54157;SDS011;40065;49.894;10.358;2023-02-28T21:42:20;15.20;;;8.55;;
54157;SDS011;40065;49.894;10.358;2023-02-28T21:47:23;24.27;;;12.65;;
54157;SDS011;40065;49.894;10.358;2023-02-28T21:52:24;22.52;;;10.40;;
54157;SDS011;40065;49.894;10.358;2023-02-28T21:57:26;18.45;;;9.02;;
54157;SDS011;40065;49.894;10.358;2023-02-28T22:02:28;18.38;;;9.38;;
54157;SDS011;40065;49.894;10.358;2023-02-28T22:07:30;27.58;;;13.43;;
54157;SDS011;40065;49.894;10.358;2023-02-28T22:12:32;16.98;;;8.88;;
54157;SDS011;40065;49.894;10.358;2023-02-28T22:17:34;17.92;;;9.35;;
54157;SDS011;40065;49.894;10.358;2023-02-28T22:22:36;16.00;;;9.18;;
54157;SDS011;40065;49.894;10.358;2023-02-28T22:27:37;18.55;;;9.05;;
54157;SDS011;40065;49.894;10.358;2023-02-28T22:32:39;13.63;;;7.20;;
54157;SDS011;40065;49.894;10.358;2023-02-28T22:37:41;12.15;;;6.95;;
54157;SDS011;40065;49.894;10.358;2023-02-28T22:42:43;16.15;;;8.07;;
54157;SDS011;40065;49.894;10.358;2023-02-28T22:47:46;15.50;;;7.93;;
54157;SDS011;40065;49.894;10.358;2023-02-28T22:52:49;17.45;;;9.68;;
54157;SDS011;40065;49.894;10.358;2023-02-28T22:57:50;17.50;;;8.93;;
54157;SDS011;40065;49.894;10.358;2023-02-28T23:02:52;19.33;;;8.73;;
54157;SDS011;40065;49.894;10.358;2023-02-28T23:07:54;18.08;;;9.77;;
54157;SDS011;40065;49.894;10.358;2023-02-28T23:12:56;14.00;;;8.07;;
54157;SDS011;40065;49.894;10.358;2023-02-28T23:17:58;19.27;;;9.70;;
54157;SDS011;40065;49.894;10.358;2023-02-28T23:23:00;19.60;;;9.95;;
54157;SDS011;40065;49.894;10.358;2023-02-28T23:28:01;14.30;;;7.97;;
54157;SDS011;40065;49.894;10.358;2023-02-28T23:33:06;15.38;;;8.27;;
54157;SDS011;40065;49.894;10.358;2023-02-28T23:38:08;13.18;;;6.57;;
54157;SDS011;40065;49.894;10.358;2023-02-28T23:43:10;19.13;;;9.55;;
54157;SDS011;40065;49.894;10.358;2023-02-28T23:48:12;19.08;;;8.50;;
54157;SDS011;40065;49.894;10.358;2023-02-28T23:53:14;16.55;;;8.73;;
54157;SDS011;40065;49.894;10.358;2023-02-28T23:58:16;18.38;;;9.82;;
